createdAt,value
2019-03-23T00:00:36.232Z,9.30
2019-03-23T00:03:09.105Z,8.57
2019-03-23T00:05:41.927Z,9.60
2019-03-23T00:08:14.426Z,9.60
2019-03-23T00:10:47.018Z,9.80
2019-03-23T00:13:19.684Z,9.30
2019-03-23T00:15:52.275Z,8.90
2019-03-23T00:18:24.804Z,9.60
2019-03-23T00:20:57.365Z,8.73
2019-03-23T00:23:29.863Z,7.90
2019-03-23T00:26:02.542Z,8.37
2019-03-23T00:28:35.135Z,8.40
2019-03-23T00:31:08.146Z,9.13
2019-03-23T00:33:40.977Z,8.63
2019-03-23T00:36:13.495Z,7.97
2019-03-23T00:38:46.344Z,8.40
2019-03-23T00:41:18.862Z,7.93
2019-03-23T00:43:51.452Z,8.57
2019-03-23T00:46:23.992Z,8.78
2019-03-23T00:48:56.588Z,9.23
2019-03-23T00:51:29.120Z,8.93
2019-03-23T00:54:01.645Z,9.07
2019-03-23T00:56:34.327Z,8.00
2019-03-23T00:59:06.857Z,7.33
2019-03-23T01:01:39.448Z,8.20
2019-03-23T01:04:12.042Z,8.10
2019-03-23T01:06:52.193Z,9.03
2019-03-23T01:09:19.354Z,8.13
2019-03-23T01:11:51.891Z,8.40
2019-03-23T01:14:24.856Z,9.23
2019-03-23T01:16:57.389Z,9.10
2019-03-23T01:19:29.915Z,9.68
2019-03-23T01:22:02.539Z,9.03
2019-03-23T01:24:35.140Z,9.03
2019-03-23T01:27:07.673Z,8.80
2019-03-23T01:29:41.146Z,8.90
2019-03-23T01:32:13.696Z,9.43
2019-03-23T01:34:46.481Z,8.40
2019-03-23T01:37:19.074Z,9.03
2019-03-23T01:39:51.866Z,9.07
2019-03-23T01:42:24.384Z,8.67
2019-03-23T01:44:56.889Z,9.07
2019-03-23T01:47:29.488Z,7.83
2019-03-23T01:50:02.100Z,8.50
2019-03-23T01:52:35.701Z,8.37
2019-03-23T01:55:08.780Z,8.83
2019-03-23T01:57:41.564Z,8.37
2019-03-23T02:00:14.818Z,8.37
2019-03-23T02:02:47.775Z,8.67
2019-03-23T02:05:20.402Z,8.73
2019-03-23T02:07:52.904Z,8.90
2019-03-23T02:10:25.399Z,9.03
2019-03-23T02:12:59.009Z,8.50
2019-03-23T02:15:31.672Z,8.87
2019-03-23T02:18:04.354Z,9.77
2019-03-23T02:20:37.288Z,9.57
2019-03-23T02:23:09.814Z,9.53
2019-03-23T02:25:42.595Z,9.87
2019-03-23T02:28:15.143Z,10.27
2019-03-23T02:30:47.786Z,9.73
2019-03-23T02:33:20.311Z,9.28
2019-03-23T02:35:53.386Z,9.17
2019-03-23T02:38:26.044Z,9.77
2019-03-23T02:40:58.562Z,8.83
2019-03-23T02:43:31.353Z,10.17
2019-03-23T02:46:04.132Z,10.23
2019-03-23T02:48:36.762Z,10.87
2019-03-23T02:51:09.290Z,9.47
2019-03-23T02:53:41.902Z,9.73
2019-03-23T02:56:14.435Z,8.77
2019-03-23T02:58:47.267Z,9.43
2019-03-23T03:01:19.780Z,10.00
2019-03-23T03:03:52.320Z,9.00
2019-03-23T03:06:25.103Z,9.57
2019-03-23T03:08:57.705Z,8.97
2019-03-23T03:11:30.215Z,9.53
2019-03-23T03:14:02.745Z,9.67
2019-03-23T03:16:35.516Z,9.30
2019-03-23T03:19:08.149Z,9.73
2019-03-23T03:21:40.745Z,9.67
2019-03-23T03:24:13.266Z,9.00
2019-03-23T03:26:45.869Z,9.30
2019-03-23T03:29:18.427Z,8.67
2019-03-23T03:31:50.989Z,9.40
2019-03-23T03:34:23.624Z,8.97
2019-03-23T03:36:56.513Z,9.67
2019-03-23T03:39:29.047Z,9.13
2019-03-23T03:42:01.998Z,8.80
2019-03-23T03:44:34.694Z,9.57
2019-03-23T03:47:07.376Z,9.27
2019-03-23T03:49:39.915Z,9.27
2019-03-23T03:52:12.573Z,9.43
2019-03-23T03:54:45.128Z,9.63
2019-03-23T03:57:18.061Z,10.47
2019-03-23T03:59:50.681Z,9.07
2019-03-23T04:02:23.375Z,9.67
2019-03-23T04:04:55.914Z,9.63
2019-03-23T04:07:28.458Z,9.75
2019-03-23T04:10:01.018Z,9.43
2019-03-23T04:12:33.564Z,9.93
2019-03-23T04:15:07.221Z,9.65
2019-03-23T04:17:40.174Z,9.23
2019-03-23T04:20:13.290Z,9.40
2019-03-23T04:22:45.842Z,10.27
2019-03-23T04:25:18.521Z,9.38
2019-03-23T04:27:51.157Z,9.87
2019-03-23T04:30:23.792Z,9.13
2019-03-23T04:32:56.344Z,9.27
2019-03-23T04:35:29.339Z,9.30
2019-03-23T04:38:01.893Z,9.13
2019-03-23T04:40:34.436Z,9.33
2019-03-23T04:43:07.122Z,9.37
2019-03-23T04:45:39.916Z,9.03
2019-03-23T04:48:12.493Z,8.83
2019-03-23T04:50:45.209Z,10.17
2019-03-23T04:53:17.955Z,9.58
2019-03-23T04:55:50.605Z,9.63
2019-03-23T04:58:23.183Z,9.17
2019-03-23T05:00:55.874Z,9.30
2019-03-23T05:03:28.688Z,9.03
2019-03-23T05:06:01.234Z,9.73
2019-03-23T05:08:33.914Z,8.40
2019-03-23T05:11:06.783Z,9.20
2019-03-23T05:13:39.349Z,9.30
2019-03-23T05:16:12.478Z,9.65
2019-03-23T05:18:45.037Z,10.53
2019-03-23T05:21:17.680Z,10.40
2019-03-23T05:23:50.315Z,10.07
2019-03-23T05:26:23.354Z,10.37
2019-03-23T05:28:56.356Z,8.93
2019-03-23T05:31:28.929Z,10.18
2019-03-23T05:34:01.491Z,10.37
2019-03-23T05:36:34.170Z,9.67
2019-03-23T05:39:08.207Z,10.57
2019-03-23T05:41:40.763Z,11.43
2019-03-23T05:44:13.499Z,10.80
2019-03-23T05:46:46.050Z,10.97
2019-03-23T05:49:18.624Z,11.20
2019-03-23T05:51:51.170Z,10.50
2019-03-23T05:54:23.749Z,11.80
2019-03-23T05:56:56.666Z,11.80
2019-03-23T05:59:29.225Z,12.33
2019-03-23T06:02:02.009Z,11.23
2019-03-23T06:04:34.584Z,10.40
2019-03-23T06:07:07.547Z,11.07
2019-03-23T06:09:40.153Z,11.20
2019-03-23T06:12:12.785Z,11.50
2019-03-23T06:14:45.422Z,10.77
2019-03-23T06:17:18.080Z,11.03
2019-03-23T06:19:50.629Z,11.33
2019-03-23T06:22:23.255Z,11.20
2019-03-23T06:24:55.811Z,11.13
2019-03-23T06:27:28.613Z,10.40
2019-03-23T06:30:01.188Z,11.40
2019-03-23T06:32:33.826Z,10.57
2019-03-23T06:35:06.826Z,10.57
2019-03-23T06:37:39.534Z,10.53
2019-03-23T06:40:12.622Z,11.70
2019-03-23T06:42:45.976Z,11.68
2019-03-23T06:45:19.181Z,12.10
2019-03-23T06:47:51.731Z,13.67
2019-03-23T06:50:24.282Z,12.53
2019-03-23T06:52:56.831Z,13.10
2019-03-23T06:55:29.559Z,13.10
2019-03-23T06:58:02.581Z,12.73
2019-03-23T07:00:35.316Z,12.17
2019-03-23T07:03:07.977Z,12.90
2019-03-23T07:05:40.568Z,16.33
2019-03-23T07:08:13.483Z,16.47
2019-03-23T07:10:46.198Z,20.07
2019-03-23T07:13:18.746Z,21.40
2019-03-23T07:15:51.345Z,21.73
2019-03-23T07:18:23.959Z,23.40
2019-03-23T07:20:56.610Z,23.47
2019-03-23T07:23:29.177Z,23.07
2019-03-23T07:26:01.805Z,23.17
2019-03-23T07:28:34.444Z,20.30
2019-03-23T07:31:07.148Z,19.47
2019-03-23T07:33:39.706Z,16.83
2019-03-23T07:36:13.467Z,19.33
2019-03-23T07:38:46.240Z,17.90
2019-03-23T07:41:19.262Z,17.20
2019-03-23T07:43:51.798Z,17.73
2019-03-23T07:46:24.968Z,17.27
2019-03-23T07:48:57.546Z,17.43
2019-03-23T07:51:30.226Z,18.57
2019-03-23T07:54:03.286Z,18.35
2019-03-23T07:56:35.999Z,17.20
2019-03-23T07:59:08.951Z,18.90
2019-03-23T08:01:41.621Z,17.87
2019-03-23T08:04:14.508Z,18.10
2019-03-23T08:06:47.201Z,18.10
2019-03-23T08:09:21.683Z,17.80
2019-03-23T08:11:54.839Z,18.42
2019-03-23T08:14:27.579Z,17.50
2019-03-23T08:17:00.501Z,18.45
2019-03-23T08:19:33.308Z,18.90
2019-03-23T08:22:06.219Z,18.83
2019-03-23T08:24:38.885Z,19.00
2019-03-23T08:27:12.199Z,18.40
2019-03-23T08:29:44.787Z,18.43
2019-03-23T08:32:17.331Z,17.27
2019-03-23T08:34:50.308Z,18.20
2019-03-23T08:37:22.868Z,18.98
2019-03-23T08:39:55.440Z,17.87
2019-03-23T08:42:27.978Z,15.77
2019-03-23T08:45:00.550Z,18.43
2019-03-23T08:47:33.185Z,16.70
2019-03-23T08:50:06.243Z,18.03
2019-03-23T08:52:38.906Z,18.33
2019-03-23T08:55:13.450Z,15.20
2019-03-23T08:57:46.009Z,18.07
2019-03-23T09:00:18.732Z,18.13
2019-03-23T09:02:51.312Z,18.93
2019-03-23T09:05:23.965Z,19.52
2019-03-23T09:07:56.689Z,17.93
2019-03-23T09:10:29.540Z,19.87
2019-03-23T09:13:02.168Z,18.40
2019-03-23T09:15:34.928Z,20.83
2019-03-23T09:18:07.748Z,19.70
2019-03-23T09:20:40.482Z,20.57
2019-03-23T09:23:13.070Z,20.23
2019-03-23T09:25:45.906Z,16.40
2019-03-23T09:28:18.445Z,19.60
2019-03-23T09:30:51.008Z,18.97
2019-03-23T09:33:23.666Z,20.27
2019-03-23T09:35:56.328Z,18.53
2019-03-23T09:38:29.045Z,15.05
2019-03-23T09:41:01.703Z,18.63
2019-03-23T09:43:34.524Z,18.60
2019-03-23T09:46:07.207Z,13.50
2019-03-23T09:48:40.117Z,15.50
2019-03-23T09:51:12.875Z,18.97
2019-03-23T09:53:45.522Z,19.27
2019-03-23T09:56:18.084Z,15.47
2019-03-23T09:58:50.631Z,14.50
2019-03-23T10:01:23.251Z,17.65
2019-03-23T10:03:55.834Z,19.63
2019-03-23T10:06:28.409Z,13.08
2019-03-23T10:09:01.213Z,11.87
2019-03-23T10:11:35.219Z,18.60
2019-03-23T10:14:07.895Z,18.67
2019-03-23T10:16:40.608Z,13.70
2019-03-23T10:19:13.330Z,20.50
2019-03-23T10:21:46.532Z,18.63
2019-03-23T10:24:19.428Z,18.77
2019-03-23T10:26:52.361Z,19.70
2019-03-23T10:29:25.085Z,19.97
2019-03-23T10:31:57.821Z,17.33
2019-03-23T10:34:30.697Z,18.10
2019-03-23T10:37:03.831Z,16.32
2019-03-23T10:39:36.573Z,15.83
2019-03-23T10:42:11.604Z,16.07
2019-03-23T10:44:44.559Z,18.97
2019-03-23T10:47:17.315Z,16.13
2019-03-23T10:49:51.387Z,18.97
2019-03-23T10:52:24.121Z,17.73
2019-03-23T10:54:56.830Z,20.13
2019-03-23T10:57:29.476Z,20.40
2019-03-23T11:00:02.163Z,21.40
2019-03-23T11:02:34.875Z,19.70
2019-03-23T11:05:08.522Z,16.50
2019-03-23T11:07:41.234Z,19.73
2019-03-23T11:10:14.431Z,19.07
2019-03-23T11:12:47.186Z,20.30
2019-03-23T11:15:20.589Z,12.37
2019-03-23T11:17:53.186Z,18.03
2019-03-23T11:20:25.814Z,19.27
2019-03-23T11:22:58.717Z,19.90
2019-03-23T11:25:31.424Z,20.33
2019-03-23T11:28:04.305Z,18.07
2019-03-23T11:30:36.982Z,19.57
2019-03-23T11:33:09.581Z,21.33
2019-03-23T11:35:42.262Z,17.83
2019-03-23T11:38:14.842Z,19.10
2019-03-23T11:40:52.932Z,19.00
2019-03-23T11:43:21.745Z,20.20
2019-03-23T11:45:54.384Z,19.50
2019-03-23T11:48:27.028Z,20.97
2019-03-23T11:50:59.592Z,19.67
2019-03-23T11:53:32.261Z,21.07
2019-03-23T11:56:05.098Z,21.43
2019-03-23T11:58:37.757Z,18.13
2019-03-23T12:01:11.093Z,19.47
2019-03-23T12:03:43.759Z,17.83
2019-03-23T12:06:17.117Z,18.57
2019-03-23T12:08:49.768Z,17.73
2019-03-23T12:11:22.430Z,18.67
2019-03-23T12:13:55.155Z,18.77
2019-03-23T12:16:27.826Z,18.40
2019-03-23T12:19:00.777Z,20.80
2019-03-23T12:21:33.574Z,16.13
2019-03-23T12:24:06.322Z,17.07
2019-03-23T12:26:39.075Z,15.23
2019-03-23T12:29:12.061Z,18.15
2019-03-23T12:31:44.648Z,17.33
2019-03-23T12:34:17.246Z,11.73
2019-03-23T12:36:50.061Z,18.97
2019-03-23T12:39:22.740Z,17.87
2019-03-23T12:41:55.508Z,18.80
2019-03-23T12:44:28.378Z,19.20
2019-03-23T12:47:01.261Z,18.37
2019-03-23T12:49:33.948Z,17.10
2019-03-23T12:52:07.076Z,16.57
2019-03-23T12:54:40.113Z,16.97
2019-03-23T12:57:12.919Z,15.57
2019-03-23T12:59:45.643Z,17.80
2019-03-23T13:02:18.363Z,17.37
2019-03-23T13:04:51.500Z,19.23
2019-03-23T13:07:24.220Z,14.90
2019-03-23T13:09:56.853Z,18.77
2019-03-23T13:12:29.595Z,18.10
2019-03-23T13:15:03.259Z,17.37
2019-03-23T13:17:36.350Z,16.37
2019-03-23T13:20:10.562Z,20.20
2019-03-23T13:22:43.190Z,20.07
2019-03-23T13:25:15.885Z,20.47
2019-03-23T13:27:48.640Z,19.10
2019-03-23T13:30:21.384Z,18.13
2019-03-23T13:32:53.980Z,17.30
2019-03-23T13:35:26.675Z,17.20
2019-03-23T13:37:59.354Z,18.50
2019-03-23T13:40:32.027Z,15.17
2019-03-23T13:43:04.690Z,15.93
2019-03-23T13:45:42.642Z,17.10
2019-03-23T13:48:12.401Z,18.73
2019-03-23T13:50:45.124Z,21.10
2019-03-23T13:53:18.093Z,19.05
2019-03-23T13:55:51.002Z,20.30
2019-03-23T13:58:23.580Z,19.87
2019-03-23T14:00:56.311Z,20.77
2019-03-23T14:03:28.981Z,23.12
2019-03-23T14:06:01.730Z,21.40
2019-03-23T14:08:34.660Z,22.50
2019-03-23T14:11:07.401Z,20.77
2019-03-23T14:13:40.015Z,16.03
2019-03-23T14:16:13.123Z,22.00
2019-03-23T14:18:45.990Z,22.07
2019-03-23T14:21:18.738Z,22.63
2019-03-23T14:23:51.688Z,22.30
2019-03-23T14:26:24.462Z,22.30
2019-03-23T14:28:57.082Z,20.50
2019-03-23T14:31:29.708Z,23.70
2019-03-23T14:34:02.757Z,21.80
2019-03-23T14:36:35.435Z,21.33
2019-03-23T14:39:09.200Z,24.07
2019-03-23T14:41:41.844Z,22.03
2019-03-23T14:44:14.410Z,23.40
2019-03-23T14:46:47.443Z,23.50
2019-03-23T14:49:20.145Z,21.20
2019-03-23T14:51:53.061Z,22.13
2019-03-23T14:54:26.435Z,22.95
2019-03-23T14:56:59.227Z,21.37
2019-03-23T14:59:31.968Z,21.83
2019-03-23T15:02:04.783Z,22.37
2019-03-23T15:04:37.759Z,20.63
2019-03-23T15:07:11.691Z,23.17
2019-03-23T15:09:44.428Z,22.00
2019-03-23T15:12:17.117Z,23.80
2019-03-23T15:14:49.744Z,21.23
2019-03-23T15:17:22.504Z,22.15
2019-03-23T15:19:55.793Z,22.33
2019-03-23T15:22:28.575Z,22.50
2019-03-23T15:25:01.315Z,22.87
2019-03-23T15:27:34.052Z,21.53
2019-03-23T15:30:07.873Z,22.57
2019-03-23T15:32:40.740Z,24.07
2019-03-23T15:35:13.615Z,23.63
2019-03-23T15:37:46.382Z,23.80
2019-03-23T15:40:19.202Z,20.52
2019-03-23T15:42:52.061Z,21.77
2019-03-23T15:45:25.353Z,21.75
2019-03-23T15:47:58.142Z,21.03
2019-03-23T15:50:30.900Z,20.40
2019-03-23T15:53:03.723Z,23.07
2019-03-23T15:55:37.018Z,22.43
2019-03-23T15:58:09.767Z,20.47
2019-03-23T16:00:42.360Z,22.13
2019-03-23T16:03:15.976Z,21.43
2019-03-23T16:05:48.664Z,21.70
2019-03-23T16:08:21.338Z,21.63
2019-03-23T16:10:54.138Z,21.20
2019-03-23T16:13:26.889Z,21.60
2019-03-23T16:15:59.676Z,22.17
2019-03-23T16:18:32.366Z,21.77
2019-03-23T16:21:05.255Z,20.70
2019-03-23T16:23:37.894Z,22.13
2019-03-23T16:26:12.013Z,22.43
2019-03-23T16:28:44.786Z,21.50
2019-03-23T16:31:17.361Z,21.37
2019-03-23T16:33:49.936Z,21.00
2019-03-23T16:36:22.630Z,21.60
2019-03-23T16:38:55.508Z,21.83
2019-03-23T16:41:28.401Z,23.25
2019-03-23T16:44:01.128Z,24.00
2019-03-23T16:46:34.746Z,23.37
2019-03-23T16:49:08.590Z,22.23
2019-03-23T16:51:41.563Z,22.23
2019-03-23T16:54:14.139Z,22.50
2019-03-23T16:56:47.327Z,29.87
2019-03-23T16:59:20.664Z,24.07
2019-03-23T17:01:57.018Z,22.80
2019-03-23T17:04:30.429Z,22.70
2019-03-23T17:07:03.939Z,23.50
2019-03-23T17:09:37.295Z,22.90
2019-03-23T17:12:10.262Z,23.23
2019-03-23T17:14:43.270Z,23.83
2019-03-23T17:17:16.230Z,22.77
2019-03-23T17:19:49.591Z,21.97
2019-03-23T17:22:22.598Z,22.85
2019-03-23T17:24:55.640Z,22.90
2019-03-23T17:27:28.709Z,24.18
2019-03-23T17:30:01.767Z,24.37
2019-03-23T17:32:35.954Z,23.63
2019-03-23T17:35:09.115Z,23.70
2019-03-23T17:37:43.029Z,25.17
2019-03-23T17:40:16.351Z,23.60
2019-03-23T17:42:51.177Z,21.02
2019-03-23T17:45:24.600Z,21.43
2019-03-23T17:47:57.980Z,21.43
2019-03-23T17:50:31.240Z,19.97
2019-03-23T17:53:04.901Z,22.20
2019-03-23T17:55:38.375Z,18.63
2019-03-23T17:58:12.948Z,20.53
2019-03-23T18:00:48.840Z,19.60
2019-03-23T18:03:22.196Z,20.57
2019-03-23T18:05:55.510Z,20.33
2019-03-23T18:08:28.711Z,18.80
2019-03-23T18:11:04.182Z,19.60
2019-03-23T18:13:37.328Z,18.97
2019-03-23T18:16:10.885Z,20.40
2019-03-23T18:18:46.524Z,19.23
2019-03-23T18:21:20.353Z,18.92
2019-03-23T18:23:54.008Z,18.03
2019-03-23T18:26:30.941Z,18.00
2019-03-23T18:29:08.417Z,17.20
2019-03-23T18:31:49.745Z,19.13
2019-03-23T18:34:24.201Z,19.27
2019-03-23T18:36:58.216Z,19.07
2019-03-23T18:39:31.365Z,17.90
2019-03-23T18:42:04.844Z,18.40
2019-03-23T18:44:38.315Z,17.70
2019-03-23T18:47:12.487Z,17.40
2019-03-23T18:49:45.763Z,17.50
2019-03-23T18:52:21.626Z,18.57
2019-03-23T18:55:02.712Z,17.15
2019-03-23T18:57:39.044Z,17.97
2019-03-23T19:00:24.593Z,18.80
2019-03-23T19:02:59.379Z,16.60
2019-03-23T19:06:14.402Z,16.20
2019-03-23T19:08:47.715Z,18.37
2019-03-23T19:11:34.157Z,17.85
2019-03-23T19:14:09.812Z,16.40
2019-03-23T19:16:47.982Z,17.10
2019-03-23T19:19:22.899Z,15.80
2019-03-23T19:21:56.973Z,16.47
2019-03-23T19:24:31.122Z,16.82
2019-03-23T19:27:05.064Z,18.93
2019-03-23T19:29:45.730Z,18.90
2019-03-23T19:32:20.867Z,21.33
2019-03-23T19:34:53.874Z,20.17
2019-03-23T19:37:26.716Z,18.77
2019-03-23T19:39:59.577Z,18.67
2019-03-23T19:42:32.376Z,18.25
2019-03-23T19:45:05.558Z,19.00
2019-03-23T19:47:38.798Z,18.23
2019-03-23T19:50:12.631Z,18.45
2019-03-23T19:52:45.424Z,18.33
2019-03-23T19:55:18.126Z,17.67
2019-03-23T19:57:54.480Z,19.40
2019-03-23T20:00:26.862Z,19.03
2019-03-23T20:02:59.882Z,19.40
2019-03-23T20:05:32.738Z,19.10
2019-03-23T20:08:05.460Z,19.13
2019-03-23T20:10:38.326Z,18.17
2019-03-23T20:13:11.240Z,19.30
2019-03-23T20:15:44.092Z,18.17
2019-03-23T20:18:16.880Z,18.43
2019-03-23T20:20:50.542Z,18.83
2019-03-23T20:23:23.477Z,16.77
2019-03-23T20:25:56.211Z,16.30
2019-03-23T20:28:28.998Z,18.20
2019-03-23T20:31:01.893Z,17.33
2019-03-23T20:33:34.619Z,17.43
2019-03-23T20:36:07.394Z,16.70
2019-03-23T20:38:40.191Z,16.77
2019-03-23T20:41:13.003Z,17.00
2019-03-23T20:43:45.750Z,17.03
2019-03-23T20:46:18.537Z,17.82
2019-03-23T20:48:51.658Z,18.33
2019-03-23T20:51:24.359Z,16.20
2019-03-23T20:53:57.182Z,16.75
2019-03-23T20:56:30.344Z,16.97
2019-03-23T20:59:03.113Z,17.57
2019-03-23T21:01:35.935Z,15.93
2019-03-23T21:04:08.997Z,17.03
2019-03-23T21:06:41.809Z,17.13
2019-03-23T21:09:14.682Z,17.80
2019-03-23T21:11:47.448Z,18.10
2019-03-23T21:14:20.720Z,16.03
2019-03-23T21:16:53.540Z,17.83
2019-03-23T21:19:26.247Z,18.25
2019-03-23T21:21:59.041Z,17.63
2019-03-23T21:24:31.755Z,17.97
2019-03-23T21:27:04.497Z,18.57
2019-03-23T21:29:37.693Z,17.67
2019-03-23T21:32:12.765Z,16.20
2019-03-23T21:34:45.485Z,18.37
2019-03-23T21:37:18.819Z,15.50
2019-03-23T21:39:51.535Z,15.50
2019-03-23T21:42:24.223Z,17.73
2019-03-23T21:44:56.873Z,17.83
2019-03-23T21:47:29.488Z,17.63
2019-03-23T21:50:02.139Z,19.03
2019-03-23T21:52:34.832Z,16.60
2019-03-23T21:55:08.224Z,17.80
2019-03-23T21:57:41.172Z,18.37
2019-03-23T22:00:26.093Z,19.27
2019-03-23T22:02:58.684Z,17.40
2019-03-23T22:05:31.473Z,17.17
2019-03-23T22:08:04.266Z,16.53
2019-03-23T22:10:37.000Z,15.60
2019-03-23T22:13:10.643Z,15.60
2019-03-23T22:15:43.362Z,15.97
2019-03-23T22:18:16.000Z,15.93
2019-03-23T22:20:48.583Z,16.97
2019-03-23T22:23:21.142Z,17.53
2019-03-23T22:25:53.780Z,17.20
2019-03-23T22:28:26.409Z,19.20
2019-03-23T22:30:58.951Z,17.27
2019-03-23T22:33:31.510Z,18.00
2019-03-23T22:36:05.122Z,19.77
2019-03-23T22:38:37.765Z,18.20
2019-03-23T22:41:10.420Z,18.73
2019-03-23T22:43:42.961Z,19.90
2019-03-23T22:46:16.520Z,20.13
2019-03-23T22:48:49.086Z,19.67
2019-03-23T22:51:21.651Z,17.60
2019-03-23T22:53:55.410Z,18.17
2019-03-23T22:56:28.489Z,20.37
2019-03-23T22:59:01.042Z,18.63
2019-03-23T23:01:33.764Z,20.27
2019-03-23T23:04:06.472Z,19.63
2019-03-23T23:06:39.183Z,18.67
2019-03-23T23:09:12.553Z,18.05
2019-03-23T23:11:45.175Z,18.47
2019-03-23T23:14:19.334Z,18.93
2019-03-23T23:16:51.969Z,18.83
2019-03-23T23:19:24.617Z,19.40
2019-03-23T23:21:57.248Z,20.13
2019-03-23T23:24:29.930Z,18.90
2019-03-23T23:27:02.485Z,19.63
2019-03-23T23:29:35.189Z,20.87
2019-03-23T23:32:07.882Z,20.30
2019-03-23T23:34:40.797Z,20.90
2019-03-23T23:37:13.337Z,20.87
2019-03-23T23:39:45.924Z,19.37
2019-03-23T23:42:19.121Z,20.23
2019-03-23T23:44:51.754Z,19.17
2019-03-23T23:47:24.374Z,17.87
2019-03-23T23:49:56.923Z,19.93
2019-03-23T23:52:29.623Z,18.57
2019-03-23T23:55:02.518Z,18.00
2019-03-23T23:57:35.152Z,21.13
